Etusivu
METAR-TAF:

METAR-TAF

Lentoasemat :

Guilin, Kiina

Leveyspiiri: 25-20N, Pituuspiiri: 110-18E, korkeus merenpinnasta: 166 m

Tämänhetkinen sää

Tämä raportti tehtiin 34 minuuttia sitten, kello 04.00 UTC
Tuuli 6 kn etelästä
Lämpötila 34°C
Kosteus 63%
Ilmanpaine 1004 hPa
Näkyvyys: 7000 m
Hajanaisia pilviä 3300 ft:n korkeudessa

METAR: ZGKL 270400Z 18003MPS 7000 SCT033 34/26 Q1004 NOSIG

Aika: 12:34 (04:34 UTC)

Sääennuste

Tämä raportti tehtiin 9 tuntia ja 17 minuuttia sitten, kello 19.17 UTC
Ennuste voimassa 27. päivästä klo 00 UTC - 27. päivään klo 24 UTC
Tuuli 6 kn etelästä
Näkyvyys 10 km tai enemmän
ei pilviä alle 1500 m:ssä eikä cumulonimbus-pilviä
Ajoittain
27. päivästä klo 06 UTC - 27. päivään klo 12 UTC
Muutamia pilviä 4000 ft:n korkeudessa, Cumulonimbus.

TAF: ZGKL 261917Z 2700/2724 17003MPS CAVOK TX36/2707Z TN25/2722Z TEMPO 2706/2712 FEW040CB

Säähavainnot ja -ennusteet yli 4000 lentoasemalta (METAR- ja TAF-raportit).

Käytössä olevat sääasemat on merkitty karttaan keltaisilla ja punaisilla pisteillä.

Aseta hiiri pisteen päälle nähdäksesi sääaseman nimen.

Klikkaa sitten nähdäksesi säähavainnot ja -ennusteet.

Kartan vaihtaminen: klikkaa mustalla rastilla varustettuja vihreitä pisteitä, niin voit zoomata sisään; viivalla varustettua vihreää pistettä, niin voit zoomata ulos tai vihreitä nuolia, niin pääset viereisille kartoille.


METAR-TAF: